Flight Track Log - Related Links

Times and Time Zones

All times are in EDT time to prevent confusion due to time zone crossing. See the ASQ4115 flight status page for this flight to view local times or setup timezone preferences in your user account.

Time Position Orientation Groundspeed Altitude Reporting Facility
EDT Latitude Longitude Course Direction KTS MPH feet Rate Location/Type
Fri 02:19:53 PM 29.9581 -95.3481 264° West 164 189 700  Level Houston Center
Fri 02:20:55 PM 29.9550 -95.3839 24° Northeast 226 260 3,000 1,686 Climbing Houston Center
Fri 02:21:54 PM 30.0078 -95.3569 22° Northeast 253 291 4,100 555 Climbing Houston Center
Fri 02:22:54 PM 30.0797 -95.3236 24° Northeast 263 303 4,100  Level Houston Center
Fri 02:23:54 PM 30.1497 -95.2878 10° North 268 308 4,100 1,200 Level Houston Center
Fri 02:24:54 PM 30.2294 -95.2714 North 273 314 6,500 2,400 Climbing Houston Center
Fri 02:25:54 PM 30.3069 -95.2597 North 278 320 8,900 2,000 Climbing Houston Center
Fri 02:26:54 PM 30.3908 -95.2458 North 290 334 10,500 1,450 Climbing Houston Center
Fri 02:27:54 PM 30.4956 -95.2278 North 317 365 11,800 1,550 Climbing Houston Center
Fri 02:28:54 PM 30.5981 -95.2144 North 345 397 13,600 1,750 Climbing Houston Center
Fri 02:29:54 PM 30.7028 -95.1989 North 362 417 15,300 1,700 Climbing Houston Center
Fri 02:30:54 PM 30.8097 -95.1833 North 373 429 17,000 1,550 Climbing Houston Center
Fri 02:31:54 PM 30.9186 -95.1678 North 378 435 18,400 1,750 Climbing Houston Center
Fri 02:32:54 PM 31.0256 -95.1497 North 383 441 20,500 1,743 Climbing Houston Center
Fri 02:34:22 PM 31.1719 -95.1311 North 386 444 22,700 1,633 Climbing Fort Worth Center
Fri 02:35:21 PM 31.2800 -95.1164 North 386 444 24,500 1,765 Climbing Fort Worth Center
Fri 02:36:21 PM 31.3906 -95.0989 North 386 444 26,200 1,240 Climbing Fort Worth Center
Fri 02:37:22 PM 31.5092 -95.0789 North 386 444 27,000 400 Climbing Fort Worth Center
Fri 02:38:21 PM 31.6319 -95.0614 North 407 468 27,000  Level Fort Worth Center
Fri 02:39:21 PM 31.7569 -95.0411 North 434 499 27,000  Level Fort Worth Center
Fri 02:40:21 PM 31.8900 -95.0206 North 461 531 27,000  Level Fort Worth Center
Fri 02:41:21 PM 32.0233 -95.0022 North 469 540 27,000  Level Fort Worth Center
Fri 02:42:21 PM 32.1564 -94.9817 10° North 480 552 27,000  Level Fort Worth Center
Fri 02:43:21 PM 32.2875 -94.9536 North 473 544 27,000  Level Fort Worth Center
Fri 02:44:21 PM 32.4228 -94.9375 North 479 551 27,000  Level Fort Worth Center
Fri 02:45:21 PM 32.5539 -94.9117 North 479 551 27,000  Level Fort Worth Center
Fri 02:46:21 PM 32.6892 -94.8931 North 484 557 27,000  Level Fort Worth Center
Fri 02:47:21 PM 32.8267 -94.8719 North 479 551 27,000  Level Fort Worth Center
Fri 02:48:21 PM 32.9617 -94.8508 North 479 551 27,000  Level Fort Worth Center
Fri 02:49:22 PM 33.0700 -94.8378 North 479 551 27,000  Level Fort Worth Center
Fri 02:50:21 PM 33.2197 -94.8111 North 479 551 27,000  Level Fort Worth Center
Fri 02:51:21 PM 33.3592 -94.7897 North 485 558 27,000  Level Fort Worth Center
Fri 02:52:22 PM 33.4967 -94.7706 North 491 565 27,000  Level Fort Worth Center
Fri 02:53:21 PM 33.6358 -94.7464 North 498 573 27,000  Level Fort Worth Center
Fri 02:54:21 PM 33.7711 -94.7272 North 498 573 27,000 -595 Level Fort Worth Center
Fri 02:55:22 PM 33.9125 -94.7006 North 498 573 25,800 -1,450 Descending Fort Worth Center
Fri 02:56:21 PM 34.0475 -94.6786 North 498 573 24,100 -617 Descending Fort Worth Center
Fri 02:58:17 PM 34.2994 -94.6414 North 470 541 24,000 -34 Descending Memphis Center
Fri 02:59:17 PM 34.4317 -94.6228 North 470 541 24,000 -50 Level Memphis Center
Fri 03:00:17 PM 34.5619 -94.5989 North 470 541 23,900 -550 Descending Memphis Center
Fri 03:01:17 PM 34.6919 -94.5778 North 470 541 22,900 -1,050 Descending Memphis Center
Fri 03:02:17 PM 34.8178 -94.5536 10° North 465 535 21,800 -1,100 Descending Memphis Center
Fri 03:03:17 PM 34.9461 -94.5269 North 465 535 20,700 -1,100 Descending Memphis Center
Fri 03:04:17 PM 35.0700 -94.5028 North 459 528 19,600 -1,100 Descending Memphis Center
Fri 03:05:17 PM 35.1936 -94.4886 North 453 521 18,500 -1,050 Descending Memphis Center
Fri 03:06:17 PM 35.3172 -94.4717 North 447 514 17,500 -1,050 Descending Memphis Center
Fri 03:07:17 PM 35.4258 -94.4617 North 442 509 16,400 -1,050 Descending Memphis Center
Fri 03:08:17 PM 35.5392 -94.4419 North 429 494 15,400 -1,050 Descending Memphis Center
Fri 03:09:17 PM 35.6503 -94.4217 359° North 411 473 14,300 -1,100 Descending Memphis Center
Fri 03:10:17 PM 35.7628 -94.4247 357° North 405 466 13,200 -1,100 Descending Memphis Center
Fri 03:11:17 PM 35.8753 -94.4328 North 405 466 12,100 -1,100 Descending Memphis Center
Fri 03:12:17 PM 35.9817 -94.4303 North 400 460 11,000 -1,000 Descending Memphis Center
Fri 03:13:17 PM 36.0819 -94.4225 North 381 438 10,100 -1,350 Descending Memphis Center
Fri 03:14:17 PM 36.1697 -94.4167 North 341 392 8,300 -1,950 Descending Memphis Center
Fri 03:15:17 PM 36.2492 -94.4103 North 306 352 6,200 -1,950 Descending Memphis Center
Fri 03:16:17 PM 36.3264 -94.4064 23° Northeast 284 327 4,400 -1,600 Descending Memphis Center
Fri 03:17:17 PM 36.3881 -94.3733 147° Southeast 271 312 3,000 -900 Descending Memphis Center
Fri 03:18:17 PM 36.3533 -94.3458 158° South 81 93 2,600 -550 Descending Memphis Center
Fri 03:19:17 PM 36.3186 -94.3286 130° Southeast 79 91 1,900 -450 Descending Memphis Center
Fri 03:20:17 PM 36.3025 -94.3047 130° Southeast 87 100 1,700 -200 Descending Memphis Center

Login

Don't have an account? Register now (free) for customized features, flight alerts, and more!